createdAt,value
2022-10-04T00:00:13.177Z,11.10
2022-10-04T00:01:13.167Z,11.10
2022-10-04T00:02:13.250Z,11.10
2022-10-04T00:03:13.240Z,11.09
2022-10-04T00:04:13.160Z,11.10
2022-10-04T00:05:13.132Z,11.07
2022-10-04T00:06:13.130Z,11.07
2022-10-04T00:07:13.102Z,11.07
2022-10-04T00:08:19.657Z,11.06
2022-10-04T00:09:13.074Z,11.07
2022-10-04T00:10:13.077Z,11.09
2022-10-04T00:11:13.054Z,11.07
2022-10-04T00:12:13.051Z,11.09
2022-10-04T00:13:13.035Z,11.09
2022-10-04T00:14:13.035Z,11.09
2022-10-04T00:15:13.034Z,11.10
2022-10-04T00:16:13.102Z,11.10
2022-10-04T00:17:12.995Z,11.07
2022-10-04T00:18:12.988Z,11.09
2022-10-04T00:19:12.971Z,11.09
2022-10-04T00:20:12.980Z,11.09
2022-10-04T00:21:12.951Z,11.09
2022-10-04T00:22:12.938Z,11.10
2022-10-04T00:23:12.933Z,11.09
2022-10-04T00:24:12.920Z,11.10
2022-10-04T00:25:12.931Z,11.10
2022-10-04T00:26:12.908Z,11.10
2022-10-04T00:27:12.873Z,11.09
2022-10-04T00:28:12.931Z,11.10
2022-10-04T00:29:12.881Z,11.10
2022-10-04T00:30:12.859Z,11.10
2022-10-04T00:31:12.880Z,11.10
2022-10-04T00:32:12.842Z,11.10
2022-10-04T00:33:12.811Z,11.10
2022-10-04T00:34:12.840Z,11.09
2022-10-04T00:35:12.804Z,11.10
2022-10-04T00:36:12.800Z,11.13
2022-10-04T00:37:12.760Z,11.11
2022-10-04T00:38:12.802Z,11.13
2022-10-04T00:39:12.754Z,11.11
2022-10-04T00:40:12.753Z,11.11
2022-10-04T00:41:12.719Z,11.10
2022-10-04T00:42:12.705Z,11.09
2022-10-04T00:43:12.734Z,11.07
2022-10-04T00:44:12.690Z,11.07
2022-10-04T00:45:12.690Z,11.09
2022-10-04T00:46:12.754Z,11.06
2022-10-04T00:47:12.641Z,11.06
2022-10-04T00:48:12.635Z,11.03
2022-10-04T00:49:12.639Z,11.03
2022-10-04T00:50:12.632Z,11.03
2022-10-04T00:51:12.613Z,11.02
2022-10-04T00:52:12.613Z,11.03
2022-10-04T00:53:12.590Z,11.03
2022-10-04T00:54:12.636Z,11.06
2022-10-04T00:55:12.574Z,11.03
2022-10-04T00:56:12.553Z,11.03
2022-10-04T00:57:12.562Z,11.06
2022-10-04T00:58:12.526Z,11.07
2022-10-04T00:59:12.509Z,11.06
2022-10-04T01:00:12.525Z,11.03
2022-10-04T01:01:12.557Z,11.06
2022-10-04T01:02:12.520Z,11.06
2022-10-04T01:03:12.472Z,11.06
2022-10-04T01:04:12.466Z,11.06
2022-10-04T01:05:12.463Z,11.06
2022-10-04T01:06:12.439Z,11.06
2022-10-04T01:07:12.429Z,11.07
2022-10-04T01:08:12.424Z,11.06
2022-10-04T01:09:12.396Z,11.07
2022-10-04T01:10:12.410Z,11.06
2022-10-04T01:11:12.391Z,11.03
2022-10-04T01:12:12.371Z,11.03
2022-10-04T01:13:12.352Z,11.06
2022-10-04T01:14:12.351Z,11.03
2022-10-04T01:15:12.363Z,11.03
2022-10-04T01:16:12.391Z,11.02
2022-10-04T01:17:12.313Z,11.02
2022-10-04T01:18:12.311Z,11.02
2022-10-04T01:19:12.326Z,11.01
2022-10-04T01:20:12.320Z,10.99
2022-10-04T01:21:12.276Z,10.99
2022-10-04T01:22:12.256Z,10.99
2022-10-04T01:23:12.242Z,10.99
2022-10-04T01:24:12.233Z,11.01
2022-10-04T01:25:12.233Z,10.99
2022-10-04T01:26:12.211Z,10.99
2022-10-04T01:27:12.196Z,11.01
2022-10-04T01:28:12.247Z,10.99
2022-10-04T01:29:12.176Z,10.99
2022-10-04T01:30:12.193Z,10.99
2022-10-04T01:31:12.169Z,11.01
2022-10-04T01:32:12.175Z,11.02
2022-10-04T01:33:12.135Z,11.03
2022-10-04T01:34:12.121Z,11.02
2022-10-04T01:35:12.121Z,11.03
2022-10-04T01:36:12.096Z,11.03
2022-10-04T01:37:12.119Z,11.03
2022-10-04T01:38:12.077Z,11.07
2022-10-04T01:39:12.056Z,11.10
2022-10-04T01:40:12.072Z,11.10
2022-10-04T01:41:12.038Z,11.10
2022-10-04T01:42:12.026Z,11.11
2022-10-04T01:43:12.025Z,11.11
2022-10-04T01:44:12.002Z,11.11
2022-10-04T01:45:12.020Z,11.11
2022-10-04T01:46:12.064Z,11.13
2022-10-04T01:47:11.975Z,11.13
2022-10-04T01:48:11.968Z,11.13
2022-10-04T01:49:11.951Z,11.13
2022-10-04T01:50:15.657Z,11.13
2022-10-04T01:51:11.930Z,11.13
2022-10-04T01:52:11.948Z,11.13
2022-10-04T01:53:12.517Z,11.13
2022-10-04T01:54:11.898Z,11.13
2022-10-04T01:55:11.905Z,11.13
2022-10-04T01:56:11.883Z,11.14
2022-10-04T01:57:11.854Z,11.13
2022-10-04T01:58:11.844Z,11.16
2022-10-04T01:59:11.828Z,11.16
2022-10-04T02:00:11.870Z,11.16
2022-10-04T02:01:11.881Z,11.16
2022-10-04T02:02:11.797Z,11.14
2022-10-04T02:03:11.774Z,11.16
2022-10-04T02:04:11.826Z,11.16
2022-10-04T02:05:11.814Z,11.14
2022-10-04T02:06:11.768Z,11.16
2022-10-04T02:07:11.746Z,11.16
2022-10-04T02:08:11.740Z,11.16
2022-10-04T02:09:11.716Z,11.16
2022-10-04T02:10:11.746Z,11.16
2022-10-04T02:11:11.699Z,11.16
2022-10-04T02:12:11.693Z,11.19
2022-10-04T02:13:11.674Z,11.17
2022-10-04T02:14:11.668Z,11.19
2022-10-04T02:15:11.660Z,11.19
2022-10-04T02:16:11.688Z,11.20
2022-10-04T02:17:11.632Z,11.20
2022-10-04T02:18:11.626Z,11.21
2022-10-04T02:19:11.612Z,11.20
2022-10-04T02:20:11.612Z,11.21
2022-10-04T02:21:11.620Z,11.21
2022-10-04T02:22:11.579Z,11.21
2022-10-04T02:23:11.564Z,11.21
2022-10-04T02:24:11.551Z,11.25
2022-10-04T02:25:11.561Z,11.25
2022-10-04T02:26:11.544Z,11.24
2022-10-04T02:27:11.510Z,11.24
2022-10-04T02:28:11.590Z,11.24
2022-10-04T02:29:11.501Z,11.25
2022-10-04T02:30:11.488Z,11.24
2022-10-04T02:31:11.539Z,11.25
2022-10-04T02:32:11.475Z,11.25
2022-10-04T02:33:11.449Z,11.24
2022-10-04T02:34:11.454Z,11.25
2022-10-04T02:35:11.428Z,11.24
2022-10-04T02:36:11.431Z,11.24
2022-10-04T02:37:11.420Z,11.25
2022-10-04T02:38:11.407Z,11.24
2022-10-04T02:39:11.387Z,11.27
2022-10-04T02:40:11.382Z,11.28
2022-10-04T02:41:11.391Z,11.28
2022-10-04T02:42:11.349Z,11.27
2022-10-04T02:43:11.348Z,11.29
2022-10-04T02:44:11.336Z,11.28
2022-10-04T02:45:11.325Z,11.28
2022-10-04T02:46:11.412Z,11.27
2022-10-04T02:47:11.306Z,11.27
2022-10-04T02:48:11.297Z,11.27
2022-10-04T02:49:11.279Z,11.25
2022-10-04T02:50:11.258Z,11.25
2022-10-04T02:51:11.271Z,11.24
2022-10-04T02:52:11.276Z,11.20
2022-10-04T02:53:11.233Z,11.20
2022-10-04T02:54:11.225Z,11.20
2022-10-04T02:55:11.232Z,11.17
2022-10-04T02:56:11.233Z,11.19
2022-10-04T02:57:11.193Z,11.16
2022-10-04T02:58:11.191Z,11.14
2022-10-04T02:59:11.179Z,11.16
2022-10-04T03:00:11.162Z,11.14
2022-10-04T03:01:11.238Z,11.11
2022-10-04T03:02:11.181Z,11.10
2022-10-04T03:03:11.132Z,11.10
2022-10-04T03:04:11.117Z,11.10
2022-10-04T03:05:11.112Z,11.09
2022-10-04T03:06:11.096Z,11.09
2022-10-04T03:07:11.079Z,11.06
2022-10-04T03:08:11.061Z,11.07
2022-10-04T03:09:11.105Z,11.07
2022-10-04T03:10:11.061Z,11.06
2022-10-04T03:11:11.058Z,11.03
2022-10-04T03:12:11.077Z,11.03
2022-10-04T03:13:11.014Z,11.02
2022-10-04T03:14:11.002Z,11.02
2022-10-04T03:15:11.018Z,11.01
2022-10-04T03:16:11.044Z,11.01
2022-10-04T03:17:10.986Z,11.02
2022-10-04T03:18:10.951Z,11.03
2022-10-04T03:19:10.950Z,11.02
2022-10-04T03:20:10.947Z,11.02
2022-10-04T03:21:10.954Z,11.03
2022-10-04T03:22:10.939Z,11.02
2022-10-04T03:23:10.895Z,11.03
2022-10-04T03:24:10.910Z,11.03
2022-10-04T03:25:10.876Z,11.03
2022-10-04T03:26:10.884Z,11.03
2022-10-04T03:27:10.862Z,11.06
2022-10-04T03:28:10.943Z,11.06
2022-10-04T03:29:10.838Z,11.07
2022-10-04T03:30:10.829Z,11.09
2022-10-04T03:31:10.904Z,11.09
2022-10-04T03:32:10.800Z,11.10
2022-10-04T03:33:10.852Z,11.13
2022-10-04T03:34:10.779Z,11.14
2022-10-04T03:35:10.758Z,11.13
2022-10-04T03:36:10.778Z,11.17
2022-10-04T03:37:10.751Z,11.17
2022-10-04T03:38:10.735Z,11.17
2022-10-04T03:39:10.758Z,11.17
2022-10-04T03:40:10.721Z,11.19
2022-10-04T03:41:10.713Z,11.19
2022-10-04T03:42:10.682Z,11.19
2022-10-04T03:43:10.707Z,11.19
2022-10-04T03:44:10.662Z,11.20
2022-10-04T03:45:10.676Z,11.20
2022-10-04T03:46:10.724Z,11.20
2022-10-04T03:47:10.631Z,11.21
2022-10-04T03:48:10.624Z,11.21
2022-10-04T03:49:10.605Z,11.24
2022-10-04T03:50:10.610Z,11.24
2022-10-04T03:51:10.615Z,11.24
2022-10-04T03:52:10.580Z,11.24
2022-10-04T03:53:10.566Z,11.21
2022-10-04T03:54:10.615Z,11.27
2022-10-04T03:55:10.536Z,11.27
2022-10-04T03:56:10.550Z,11.27
2022-10-04T03:57:10.519Z,11.28
2022-10-04T03:58:10.563Z,11.25
2022-10-04T03:59:10.494Z,11.27
2022-10-04T04:00:10.489Z,11.27
2022-10-04T04:01:10.595Z,11.27
2022-10-04T04:02:10.547Z,11.27
2022-10-04T04:03:10.477Z,11.28
2022-10-04T04:04:10.457Z,11.27
2022-10-04T04:05:10.510Z,11.27
2022-10-04T04:06:10.442Z,11.28
2022-10-04T04:07:10.415Z,11.27
2022-10-04T04:08:10.396Z,11.28
2022-10-04T04:09:10.383Z,11.28
2022-10-04T04:10:14.573Z,11.29
2022-10-04T04:11:10.392Z,11.28
2022-10-04T04:12:10.348Z,11.28
2022-10-04T04:13:10.343Z,11.29
2022-10-04T04:14:10.341Z,11.31
2022-10-04T04:15:10.322Z,11.29
2022-10-04T04:16:10.382Z,11.31
2022-10-04T04:17:10.303Z,11.31
2022-10-04T04:18:10.280Z,11.32
2022-10-04T04:19:10.272Z,11.31
2022-10-04T04:20:10.285Z,11.32
2022-10-04T04:21:10.259Z,11.32
2022-10-04T04:22:10.241Z,11.32
2022-10-04T04:23:10.229Z,11.32
2022-10-04T04:24:10.228Z,11.34
2022-10-04T04:25:10.221Z,11.34
2022-10-04T04:26:10.204Z,11.34
2022-10-04T04:27:10.171Z,11.34
2022-10-04T04:28:10.230Z,11.35
2022-10-04T04:29:10.148Z,11.35
2022-10-04T04:30:10.151Z,11.36
2022-10-04T04:31:10.187Z,11.36
2022-10-04T04:32:10.139Z,11.36
2022-10-04T04:33:10.113Z,11.36
2022-10-04T04:34:10.098Z,11.35
2022-10-04T04:35:10.106Z,11.36
2022-10-04T04:36:10.098Z,11.35
2022-10-04T04:37:10.069Z,11.36
2022-10-04T04:38:10.053Z,11.36
2022-10-04T04:39:10.042Z,11.35
2022-10-04T04:40:10.037Z,11.35
2022-10-04T04:41:10.044Z,11.35
2022-10-04T04:42:10.034Z,11.35
2022-10-04T04:43:10.004Z,11.35
2022-10-04T04:44:10.011Z,11.35
2022-10-04T04:45:09.986Z,11.35
2022-10-04T04:46:26.675Z,11.35
2022-10-04T04:47:09.955Z,11.34
2022-10-04T04:48:09.935Z,11.35
2022-10-04T04:49:09.933Z,11.35
2022-10-04T04:50:09.969Z,11.34
2022-10-04T04:51:09.928Z,11.35
2022-10-04T04:52:09.931Z,11.35
2022-10-04T04:53:09.894Z,11.35
2022-10-04T04:54:09.880Z,11.35
2022-10-04T04:55:09.872Z,11.34
2022-10-04T04:56:11.141Z,11.35
2022-10-04T04:57:09.846Z,11.34
2022-10-04T04:58:09.827Z,11.35
2022-10-04T04:59:09.882Z,11.35
2022-10-04T05:00:09.852Z,11.35
2022-10-04T05:01:09.913Z,11.35
2022-10-04T05:02:09.833Z,11.35
2022-10-04T05:03:09.776Z,11.35
2022-10-04T05:04:09.796Z,11.35
2022-10-04T05:05:09.756Z,11.35
2022-10-04T05:06:09.792Z,11.35
2022-10-04T05:07:09.715Z,11.35
2022-10-04T05:08:09.716Z,11.35
2022-10-04T05:09:09.694Z,11.35
2022-10-04T05:10:09.736Z,11.35
2022-10-04T05:11:09.694Z,11.35
2022-10-04T05:12:09.672Z,11.35
2022-10-04T05:13:09.649Z,11.35
2022-10-04T05:14:09.658Z,11.36
2022-10-04T05:15:11.115Z,11.35
2022-10-04T05:16:09.740Z,11.36
2022-10-04T05:17:09.600Z,11.35
2022-10-04T05:18:09.597Z,11.34
2022-10-04T05:19:09.587Z,11.36
2022-10-04T05:20:09.592Z,11.36
2022-10-04T05:21:09.557Z,11.36
2022-10-04T05:22:09.571Z,11.36
2022-10-04T05:23:09.551Z,11.38
2022-10-04T05:24:09.525Z,11.38
2022-10-04T05:25:09.527Z,11.38
2022-10-04T05:26:09.525Z,11.39
2022-10-04T05:27:09.509Z,11.39
2022-10-04T05:28:09.546Z,11.39
2022-10-04T05:29:09.474Z,11.39
2022-10-04T05:30:09.465Z,11.41
2022-10-04T05:31:09.464Z,11.39
2022-10-04T05:32:09.569Z,11.41
2022-10-04T05:33:09.421Z,11.41
2022-10-04T05:34:09.420Z,11.39
2022-10-04T05:35:09.412Z,11.38
2022-10-04T05:36:09.386Z,11.39
2022-10-04T05:37:09.450Z,11.39
2022-10-04T05:38:09.380Z,11.39
2022-10-04T05:39:09.353Z,11.39
2022-10-04T05:40:09.342Z,11.38
2022-10-04T05:41:09.326Z,11.41
2022-10-04T05:42:09.338Z,11.38
2022-10-04T05:43:09.341Z,11.39
2022-10-04T05:44:09.346Z,11.36
2022-10-04T05:45:09.290Z,11.36
2022-10-04T05:46:09.396Z,11.35
2022-10-04T05:47:09.281Z,11.34
2022-10-04T05:48:09.268Z,11.34
2022-10-04T05:49:09.248Z,11.32
2022-10-04T05:50:09.232Z,11.31
2022-10-04T05:51:09.251Z,11.29
2022-10-04T05:52:09.224Z,11.28
2022-10-04T05:53:09.226Z,11.27
2022-10-04T05:54:09.189Z,11.27
2022-10-04T05:55:09.178Z,11.25
2022-10-04T05:56:09.177Z,11.24
2022-10-04T05:57:09.172Z,11.21
2022-10-04T05:58:09.171Z,11.21
2022-10-04T05:59:09.168Z,11.21
2022-10-04T06:00:09.119Z,11.20
2022-10-04T06:01:09.187Z,11.19
2022-10-04T06:02:09.158Z,11.17
2022-10-04T06:03:09.083Z,11.16
2022-10-04T06:04:09.084Z,11.14
2022-10-04T06:05:09.069Z,11.14
2022-10-04T06:06:09.052Z,11.14
2022-10-04T06:07:09.049Z,11.11
2022-10-04T06:08:15.595Z,11.11
2022-10-04T06:09:09.013Z,11.13
2022-10-04T06:10:09.015Z,11.10
2022-10-04T06:11:08.989Z,11.09
2022-10-04T06:12:09.010Z,11.09
2022-10-04T06:13:08.975Z,11.09
2022-10-04T06:14:08.967Z,11.07
2022-10-04T06:15:08.982Z,11.07
2022-10-04T06:16:08.945Z,11.06
2022-10-04T06:17:08.938Z,11.06
2022-10-04T06:18:15.583Z,11.03
2022-10-04T06:19:08.910Z,11.03
2022-10-04T06:20:08.897Z,11.01
2022-10-04T06:21:08.919Z,11.02
2022-10-04T06:22:08.894Z,11.01
2022-10-04T06:23:08.857Z,11.02
2022-10-04T06:24:08.855Z,10.99
2022-10-04T06:25:08.832Z,10.99
2022-10-04T06:26:08.862Z,10.99
2022-10-04T06:27:08.843Z,10.99
2022-10-04T06:28:08.890Z,10.99
2022-10-04T06:29:08.799Z,11.01
2022-10-04T06:30:08.788Z,11.01
2022-10-04T06:31:08.812Z,11.02
2022-10-04T06:32:08.776Z,11.02
2022-10-04T06:33:08.746Z,11.02
2022-10-04T06:34:08.757Z,11.03
2022-10-04T06:35:08.731Z,11.03
2022-10-04T06:36:08.721Z,11.02
2022-10-04T06:37:08.726Z,11.03
2022-10-04T06:38:08.716Z,11.03
2022-10-04T06:39:08.680Z,11.02
2022-10-04T06:40:08.684Z,11.03
2022-10-04T06:41:08.655Z,11.02
2022-10-04T06:42:08.678Z,11.03
2022-10-04T06:43:08.647Z,11.06
2022-10-04T06:44:08.640Z,11.06
2022-10-04T06:45:08.614Z,11.03
2022-10-04T06:46:08.630Z,11.03
2022-10-04T06:47:08.622Z,11.02
2022-10-04T06:48:08.593Z,11.06
2022-10-04T06:49:08.574Z,11.06
2022-10-04T06:50:08.564Z,11.07
2022-10-04T06:51:08.546Z,11.07
2022-10-04T06:52:08.563Z,11.09
2022-10-04T06:53:08.530Z,11.09
2022-10-04T06:54:08.523Z,11.10
2022-10-04T06:55:08.508Z,11.10
2022-10-04T06:56:08.492Z,11.10
2022-10-04T06:57:08.505Z,11.13
2022-10-04T06:58:08.569Z,11.11
2022-10-04T06:59:08.462Z,11.11
2022-10-04T07:00:08.448Z,11.13
2022-10-04T07:01:08.472Z,11.13
2022-10-04T07:02:08.462Z,11.14
2022-10-04T07:03:08.406Z,11.16
2022-10-04T07:04:08.402Z,11.14
2022-10-04T07:05:09.294Z,11.14
2022-10-04T07:06:08.392Z,11.16
2022-10-04T07:07:08.389Z,11.17
2022-10-04T07:08:08.360Z,11.19
2022-10-04T07:09:08.366Z,11.20
2022-10-04T07:10:08.335Z,11.20
2022-10-04T07:11:12.243Z,11.24
2022-10-04T07:12:08.351Z,11.27
2022-10-04T07:13:08.300Z,11.31
2022-10-04T07:14:08.302Z,11.32
2022-10-04T07:15:08.279Z,11.38
2022-10-04T07:16:08.420Z,11.44
2022-10-04T07:17:08.281Z,11.50
2022-10-04T07:18:08.254Z,11.56
2022-10-04T07:19:08.255Z,11.61
2022-10-04T07:20:08.237Z,11.68
2022-10-04T07:21:08.229Z,11.71
2022-10-04T07:22:08.257Z,11.80
2022-10-04T07:23:08.190Z,11.86
2022-10-04T07:24:08.179Z,11.89
2022-10-04T07:25:08.160Z,11.93
2022-10-04T07:26:08.173Z,11.99
2022-10-04T07:27:08.156Z,12.02
2022-10-04T07:28:08.176Z,12.04
2022-10-04T07:29:08.111Z,12.04
2022-10-04T07:30:08.126Z,12.04
2022-10-04T07:31:08.131Z,12.02
2022-10-04T07:32:08.109Z,12.05
2022-10-04T07:33:08.084Z,12.05
2022-10-04T07:34:08.070Z,12.06
2022-10-04T07:35:08.042Z,12.02
2022-10-04T07:36:08.038Z,12.01
2022-10-04T07:37:08.056Z,12.01
2022-10-04T07:38:08.018Z,12.04
2022-10-04T07:39:08.002Z,12.02
2022-10-04T07:40:08.012Z,12.02
2022-10-04T07:41:07.981Z,12.01
2022-10-04T07:42:08.009Z,12.01
2022-10-04T07:43:07.964Z,12.01
2022-10-04T07:44:07.961Z,12.05
2022-10-04T07:45:07.945Z,12.12
2022-10-04T07:46:08.056Z,12.15
2022-10-04T07:47:07.931Z,12.19
2022-10-04T07:48:07.901Z,12.20
2022-10-04T07:49:07.893Z,12.20
2022-10-04T07:50:07.887Z,12.21
2022-10-04T07:51:07.870Z,12.21
2022-10-04T07:52:07.898Z,12.24
2022-10-04T07:53:09.625Z,12.24
2022-10-04T07:54:07.840Z,12.26
2022-10-04T07:55:07.819Z,12.27
2022-10-04T07:56:07.815Z,12.30
2022-10-04T07:57:07.816Z,12.33
2022-10-04T07:58:07.795Z,12.37
2022-10-04T07:59:07.782Z,12.38
2022-10-04T08:00:07.781Z,12.45
2022-10-04T08:01:07.752Z,12.52
2022-10-04T08:02:07.868Z,12.54
2022-10-04T08:03:07.811Z,12.57
2022-10-04T08:04:07.730Z,12.63
2022-10-04T08:05:07.719Z,12.69
2022-10-04T08:06:07.700Z,12.71
2022-10-04T08:07:07.706Z,12.75
2022-10-04T08:08:07.680Z,12.81
2022-10-04T08:09:07.684Z,12.85
2022-10-04T08:10:07.654Z,12.89
2022-10-04T08:11:07.634Z,12.96
2022-10-04T08:12:07.647Z,13.00
2022-10-04T08:13:07.622Z,13.06
2022-10-04T08:14:07.606Z,13.11
2022-10-04T08:15:07.619Z,13.18
2022-10-04T08:16:07.705Z,13.24
2022-10-04T08:17:09.833Z,13.27
2022-10-04T08:18:07.570Z,13.32
2022-10-04T08:19:07.557Z,13.37
2022-10-04T08:20:07.553Z,13.40
2022-10-04T08:21:07.532Z,13.44
2022-10-04T08:22:07.601Z,13.51
2022-10-04T08:23:07.517Z,13.55
2022-10-04T08:24:07.516Z,13.56
2022-10-04T08:25:07.487Z,13.59
2022-10-04T08:26:07.497Z,13.61
2022-10-04T08:27:07.492Z,13.61
2022-10-04T08:28:07.517Z,13.62
2022-10-04T08:29:07.446Z,13.63
2022-10-04T08:30:07.434Z,13.65
2022-10-04T08:31:07.452Z,13.65
2022-10-04T08:32:07.428Z,13.67
2022-10-04T08:33:07.417Z,13.69
2022-10-04T08:34:07.389Z,13.71
2022-10-04T08:35:07.390Z,13.74
2022-10-04T08:36:07.371Z,13.79
2022-10-04T08:37:07.385Z,13.81
2022-10-04T08:38:07.355Z,13.84
2022-10-04T08:39:07.335Z,13.89
2022-10-04T08:40:10.814Z,13.92
2022-10-04T08:41:07.314Z,13.92
2022-10-04T08:42:07.324Z,13.96
2022-10-04T08:43:07.288Z,14.01
2022-10-04T08:44:07.282Z,14.02
2022-10-04T08:45:07.277Z,14.06
2022-10-04T08:46:07.326Z,14.12
2022-10-04T08:47:07.264Z,14.12
2022-10-04T08:48:07.232Z,14.17
2022-10-04T08:49:07.231Z,14.25
2022-10-04T08:50:07.199Z,14.29
2022-10-04T08:51:07.197Z,14.31
2022-10-04T08:52:07.211Z,14.35
2022-10-04T08:53:10.798Z,14.38
2022-10-04T08:54:07.170Z,14.42
2022-10-04T08:55:07.167Z,14.43
2022-10-04T08:56:07.142Z,14.46
2022-10-04T08:57:07.311Z,14.50
2022-10-04T08:58:07.130Z,14.49
2022-10-04T08:59:07.107Z,14.50
2022-10-04T09:00:07.100Z,14.53
2022-10-04T09:01:07.127Z,14.54
2022-10-04T09:02:07.101Z,14.57
2022-10-04T09:03:07.151Z,14.61
2022-10-04T09:04:07.059Z,14.65
2022-10-04T09:05:07.042Z,14.68
2022-10-04T09:06:07.034Z,14.67
2022-10-04T09:07:07.047Z,14.72
2022-10-04T09:08:07.013Z,14.74
2022-10-04T09:09:07.000Z,14.78
2022-10-04T09:10:06.987Z,14.78
2022-10-04T09:11:06.974Z,14.81
2022-10-04T09:12:06.983Z,14.80
2022-10-04T09:13:06.948Z,14.80
2022-10-04T09:14:06.951Z,14.72
2022-10-04T09:15:06.928Z,14.75
2022-10-04T09:16:06.992Z,14.80
2022-10-04T09:17:06.924Z,14.86
2022-10-04T09:18:06.901Z,14.86
2022-10-04T09:19:06.883Z,14.88
2022-10-04T09:20:33.420Z,14.93
2022-10-04T09:21:06.871Z,15.01
2022-10-04T09:22:06.878Z,15.06
2022-10-04T09:23:06.851Z,15.11
2022-10-04T09:24:06.867Z,15.15
2022-10-04T09:25:06.816Z,15.15
2022-10-04T09:26:06.815Z,15.20
2022-10-04T09:27:06.822Z,15.24
2022-10-04T09:28:06.834Z,15.30
2022-10-04T09:29:06.781Z,15.30
2022-10-04T09:30:06.771Z,15.33
2022-10-04T09:31:06.831Z,15.38
2022-10-04T09:32:06.755Z,15.42
2022-10-04T09:33:06.721Z,15.45
2022-10-04T09:34:06.739Z,15.49
2022-10-04T09:35:06.707Z,15.56
2022-10-04T09:36:06.698Z,15.57
2022-10-04T09:37:06.700Z,15.59
2022-10-04T09:38:06.684Z,15.63
2022-10-04T09:39:29.097Z,15.66
2022-10-04T09:40:06.659Z,15.72
2022-10-04T09:41:06.671Z,15.75
2022-10-04T09:42:06.657Z,15.76
2022-10-04T09:43:06.631Z,15.79
2022-10-04T09:44:06.609Z,15.81
2022-10-04T09:45:06.643Z,15.82
2022-10-04T09:46:06.623Z,15.85
2022-10-04T09:47:06.604Z,15.84
2022-10-04T09:48:06.582Z,15.86
2022-10-04T09:49:06.558Z,15.85
2022-10-04T09:50:06.544Z,15.86
2022-10-04T09:51:06.524Z,15.88
2022-10-04T09:52:06.551Z,15.94
2022-10-04T09:53:06.513Z,15.94
2022-10-04T09:54:06.521Z,15.97
2022-10-04T09:55:06.509Z,15.96
2022-10-04T09:56:06.493Z,16.01
2022-10-04T09:57:06.487Z,16.04
2022-10-04T09:58:06.461Z,16.07
2022-10-04T09:59:06.448Z,16.11
2022-10-04T10:00:06.434Z,16.16
2022-10-04T10:01:06.412Z,16.18
2022-10-04T10:02:06.509Z,16.25
2022-10-04T10:03:06.443Z,16.27
2022-10-04T10:04:06.392Z,16.35
2022-10-04T10:05:06.374Z,16.37
2022-10-04T10:06:06.371Z,16.34
2022-10-04T10:07:06.387Z,16.34
2022-10-04T10:08:06.343Z,16.35
2022-10-04T10:09:06.334Z,16.38
2022-10-04T10:10:06.318Z,16.42
2022-10-04T10:11:06.306Z,16.48
2022-10-04T10:12:06.293Z,16.37
2022-10-04T10:13:06.326Z,16.37
2022-10-04T10:14:06.274Z,16.41
2022-10-04T10:15:06.273Z,16.44
2022-10-04T10:16:06.345Z,16.50
2022-10-04T10:17:06.244Z,16.53
2022-10-04T10:18:06.252Z,16.55
2022-10-04T10:19:06.230Z,16.53
2022-10-04T10:20:06.207Z,16.50
2022-10-04T10:21:06.235Z,16.42
2022-10-04T10:22:06.181Z,16.37
2022-10-04T10:23:06.191Z,16.25
2022-10-04T10:24:06.168Z,16.22
2022-10-04T10:25:06.153Z,16.15
2022-10-04T10:26:06.133Z,16.14
2022-10-04T10:27:06.128Z,16.12
2022-10-04T10:28:06.188Z,16.11
2022-10-04T10:29:06.097Z,16.06
2022-10-04T10:30:06.097Z,15.96
2022-10-04T10:31:06.211Z,15.88
2022-10-04T10:32:06.071Z,15.85
2022-10-04T10:33:06.080Z,15.84
2022-10-04T10:34:06.065Z,15.84
2022-10-04T10:35:06.036Z,15.84
2022-10-04T10:36:06.033Z,15.82
2022-10-04T10:37:06.020Z,15.81
2022-10-04T10:38:06.027Z,15.76
2022-10-04T10:39:06.000Z,15.70
2022-10-04T10:40:05.992Z,15.74
2022-10-04T10:41:05.959Z,15.74
2022-10-04T10:42:05.965Z,15.74
2022-10-04T10:43:05.982Z,15.75
2022-10-04T10:44:05.957Z,15.79
2022-10-04T10:45:05.923Z,15.79
2022-10-04T10:46:05.963Z,15.78
2022-10-04T10:47:05.915Z,15.81
2022-10-04T10:48:05.915Z,15.81
2022-10-04T10:49:05.881Z,15.82
2022-10-04T10:50:05.871Z,15.88
2022-10-04T10:51:05.866Z,15.92
2022-10-04T10:52:05.847Z,15.97
2022-10-04T10:53:05.856Z,16.04
2022-10-04T10:54:05.828Z,16.07
2022-10-04T10:55:05.835Z,16.09
2022-10-04T10:56:05.823Z,16.11
2022-10-04T10:57:05.783Z,16.22
2022-10-04T10:58:05.808Z,16.31
2022-10-04T10:59:05.773Z,16.35
2022-10-04T11:00:05.758Z,16.38
2022-10-04T11:01:05.751Z,16.40
2022-10-04T11:02:05.974Z,16.38
2022-10-04T11:03:13.113Z,16.40
2022-10-04T11:04:05.809Z,16.45
2022-10-04T11:05:05.697Z,16.49
2022-10-04T11:06:05.691Z,16.55
2022-10-04T11:07:05.676Z,16.60
2022-10-04T11:08:05.687Z,16.63
2022-10-04T11:09:05.660Z,16.68
2022-10-04T11:10:05.651Z,16.71
2022-10-04T11:11:05.659Z,16.75
2022-10-04T11:12:05.633Z,16.80
2022-10-04T11:13:05.635Z,16.85
2022-10-04T11:14:05.613Z,16.83
2022-10-04T11:15:05.601Z,16.78
2022-10-04T11:16:05.630Z,16.74
2022-10-04T11:17:05.562Z,16.65
2022-10-04T11:18:05.574Z,16.65
2022-10-04T11:19:05.546Z,16.74
2022-10-04T11:20:05.541Z,16.83
2022-10-04T11:21:05.521Z,16.88
2022-10-04T11:22:05.509Z,16.95
2022-10-04T11:23:05.514Z,17.04
2022-10-04T11:24:05.488Z,17.13
2022-10-04T11:25:05.474Z,17.22
2022-10-04T11:26:05.458Z,17.26
2022-10-04T11:27:05.461Z,17.26
2022-10-04T11:28:05.537Z,17.23
2022-10-04T11:29:05.433Z,17.28
2022-10-04T11:30:05.427Z,17.32
2022-10-04T11:31:05.486Z,17.35
2022-10-04T11:32:05.406Z,17.36
2022-10-04T11:33:05.400Z,17.35
2022-10-04T11:34:05.383Z,17.28
2022-10-04T11:35:05.366Z,17.23
2022-10-04T11:36:05.367Z,17.17
2022-10-04T11:37:05.342Z,17.10
2022-10-04T11:38:05.362Z,16.99
2022-10-04T11:39:05.313Z,16.95
2022-10-04T11:40:06.415Z,16.98
2022-10-04T11:41:05.293Z,17.08
2022-10-04T11:42:05.297Z,17.08
2022-10-04T11:43:05.293Z,17.07
2022-10-04T11:44:05.285Z,16.95
2022-10-04T11:45:05.261Z,16.93
2022-10-04T11:46:09.868Z,16.96
2022-10-04T11:47:05.287Z,16.93
2022-10-04T11:48:05.241Z,16.96
2022-10-04T11:49:05.236Z,16.95
2022-10-04T11:50:05.209Z,16.92
2022-10-04T11:51:05.187Z,16.96
2022-10-04T11:52:05.184Z,17.03
2022-10-04T11:53:05.189Z,17.06
2022-10-04T11:54:05.161Z,17.04
2022-10-04T11:55:05.148Z,17.07
2022-10-04T11:56:05.152Z,17.04
2022-10-04T11:57:05.130Z,17.03
2022-10-04T11:58:09.753Z,17.03
2022-10-04T11:59:05.113Z,16.99
2022-10-04T12:00:05.127Z,17.04
2022-10-04T12:01:05.083Z,17.06
2022-10-04T12:02:05.070Z,17.08
2022-10-04T12:03:05.128Z,17.14
2022-10-04T12:04:05.164Z,17.13
2022-10-04T12:05:05.045Z,17.15
2022-10-04T12:06:05.027Z,17.17
2022-10-04T12:07:05.019Z,17.20
2022-10-04T12:08:05.033Z,17.28
2022-10-04T12:09:11.549Z,17.28
2022-10-04T12:10:04.985Z,17.32
2022-10-04T12:11:04.965Z,17.35
2022-10-04T12:12:04.959Z,17.36
2022-10-04T12:13:04.965Z,17.35
2022-10-04T12:14:04.949Z,17.33
2022-10-04T12:15:04.917Z,17.35
2022-10-04T12:16:05.018Z,17.32
2022-10-04T12:17:04.903Z,17.32
2022-10-04T12:18:04.900Z,17.38
2022-10-04T12:19:04.966Z,17.40
2022-10-04T12:20:08.668Z,17.46
2022-10-04T12:21:04.849Z,17.43
2022-10-04T12:22:04.856Z,17.46
2022-10-04T12:23:04.839Z,17.50
2022-10-04T12:24:04.846Z,17.53
2022-10-04T12:25:04.808Z,17.48
2022-10-04T12:26:04.794Z,17.50
2022-10-04T12:27:04.799Z,17.48
2022-10-04T12:28:04.885Z,17.43
2022-10-04T12:29:04.770Z,17.40
2022-10-04T12:30:04.751Z,17.43
2022-10-04T12:31:04.729Z,17.48
2022-10-04T12:32:04.881Z,17.51
2022-10-04T12:33:04.735Z,17.57
2022-10-04T12:34:04.706Z,17.54
2022-10-04T12:35:04.696Z,17.59
2022-10-04T12:36:04.686Z,17.67
2022-10-04T12:37:04.681Z,17.66
2022-10-04T12:38:04.678Z,17.63
2022-10-04T12:39:04.654Z,17.55
2022-10-04T12:40:04.644Z,17.50
2022-10-04T12:41:04.624Z,17.48
2022-10-04T12:42:04.618Z,17.43
2022-10-04T12:43:04.631Z,17.46
2022-10-04T12:44:04.597Z,17.44
2022-10-04T12:45:04.603Z,17.43
2022-10-04T12:46:04.618Z,17.41
2022-10-04T12:47:04.565Z,17.48
2022-10-04T12:48:04.588Z,17.51
2022-10-04T12:49:04.537Z,17.53
2022-10-04T12:50:04.529Z,17.48
2022-10-04T12:51:04.519Z,17.44
2022-10-04T12:52:04.518Z,17.38